sensor_id;sensor_type;location;lat;lon;timestamp;P1;durP1;ratioP1;P2;durP2;ratioP2
70014;SDS011;57358;51.094;6.760;2024-01-30T00:00:07;12.5;;;20.4;;
70014;SDS011;57358;51.094;6.760;2024-01-30T00:05:07;13.5;;;20.1;;
70014;SDS011;57358;51.094;6.760;2024-01-30T00:10:06;12.6;;;19.7;;
70014;SDS011;57358;51.094;6.760;2024-01-30T00:15:05;13.1;;;21.2;;
70014;SDS011;57358;51.094;6.760;2024-01-30T00:20:05;12.3;;;22.2;;
70014;SDS011;57358;51.094;6.760;2024-01-30T00:25:04;12.7;;;20.8;;
70014;SDS011;57358;51.094;6.760;2024-01-30T00:30:04;12.7;;;18.7;;
70014;SDS011;57358;51.094;6.760;2024-01-30T00:35:03;12.6;;;21.1;;
70014;SDS011;57358;51.094;6.760;2024-01-30T00:40:02;12.7;;;22.1;;
70014;SDS011;57358;51.094;6.760;2024-01-30T00:45:01;13.2;;;20.3;;
70014;SDS011;57358;51.094;6.760;2024-01-30T00:50:01;12.5;;;18.7;;
70014;SDS011;57358;51.094;6.760;2024-01-30T00:55:00;13.8;;;21.5;;
70014;SDS011;57358;51.094;6.760;2024-01-30T00:59:59;13.8;;;20.3;;
70014;SDS011;57358;51.094;6.760;2024-01-30T01:04:59;13.6;;;23.2;;
70014;SDS011;57358;51.094;6.760;2024-01-30T01:09:58;13.7;;;20.9;;
70014;SDS011;57358;51.094;6.760;2024-01-30T01:14:57;14.4;;;27.6;;
70014;SDS011;57358;51.094;6.760;2024-01-30T01:19:57;13.2;;;20.8;;
70014;SDS011;57358;51.094;6.760;2024-01-30T01:24:56;13.1;;;22.2;;
70014;SDS011;57358;51.094;6.760;2024-01-30T01:29:55;14.6;;;23.3;;
70014;SDS011;57358;51.094;6.760;2024-01-30T01:34:54;14;;;21.4;;
70014;SDS011;57358;51.094;6.760;2024-01-30T01:39:54;13.4;;;24.7;;
70014;SDS011;57358;51.094;6.760;2024-01-30T01:44:53;14.5;;;28;;
70014;SDS011;57358;51.094;6.760;2024-01-30T01:49:52;14;;;23;;
70014;SDS011;57358;51.094;6.760;2024-01-30T01:54:52;13.7;;;21.8;;
70014;SDS011;57358;51.094;6.760;2024-01-30T01:59:51;13.9;;;22.1;;
70014;SDS011;57358;51.094;6.760;2024-01-30T02:04:50;13.1;;;18;;
70014;SDS011;57358;51.094;6.760;2024-01-30T02:09:50;13.9;;;23.5;;
70014;SDS011;57358;51.094;6.760;2024-01-30T02:14:49;13.3;;;23.6;;
70014;SDS011;57358;51.094;6.760;2024-01-30T02:19:48;13.9;;;22;;
70014;SDS011;57358;51.094;6.760;2024-01-30T02:24:48;13.7;;;22.7;;
70014;SDS011;57358;51.094;6.760;2024-01-30T02:29:47;14.3;;;24;;
70014;SDS011;57358;51.094;6.760;2024-01-30T02:34:46;13.8;;;23.1;;
70014;SDS011;57358;51.094;6.760;2024-01-30T02:39:46;14.5;;;23.6;;
70014;SDS011;57358;51.094;6.760;2024-01-30T02:44:45;13.4;;;22.7;;
70014;SDS011;57358;51.094;6.760;2024-01-30T02:49:44;13.8;;;25.6;;
70014;SDS011;57358;51.094;6.760;2024-01-30T02:54:44;13;;;22.1;;
70014;SDS011;57358;51.094;6.760;2024-01-30T02:59:43;13.6;;;22;;
70014;SDS011;57358;51.094;6.760;2024-01-30T03:04:42;13.2;;;22.4;;
70014;SDS011;57358;51.094;6.760;2024-01-30T03:09:42;13.2;;;20.7;;
70014;SDS011;57358;51.094;6.760;2024-01-30T03:14:41;12.7;;;19.3;;
70014;SDS011;57358;51.094;6.760;2024-01-30T03:19:40;12.5;;;18.7;;
70014;SDS011;57358;51.094;6.760;2024-01-30T03:24:39;12.4;;;19.1;;
70014;SDS011;57358;51.094;6.760;2024-01-30T03:29:39;12.9;;;19.5;;
70014;SDS011;57358;51.094;6.760;2024-01-30T03:34:38;12.6;;;21.3;;
70014;SDS011;57358;51.094;6.760;2024-01-30T03:39:37;12.8;;;22;;
70014;SDS011;57358;51.094;6.760;2024-01-30T03:44:37;12.1;;;18.7;;
70014;SDS011;57358;51.094;6.760;2024-01-30T03:49:36;13.1;;;19.3;;
70014;SDS011;57358;51.094;6.760;2024-01-30T03:54:35;13.2;;;23.5;;
70014;SDS011;57358;51.094;6.760;2024-01-30T03:59:35;12.5;;;19.6;;
70014;SDS011;57358;51.094;6.760;2024-01-30T04:04:34;12.4;;;18.4;;
70014;SDS011;57358;51.094;6.760;2024-01-30T04:09:33;13.2;;;19.9;;
70014;SDS011;57358;51.094;6.760;2024-01-30T04:14:33;12.6;;;19.3;;
70014;SDS011;57358;51.094;6.760;2024-01-30T04:19:32;13.6;;;22;;
70014;SDS011;57358;51.094;6.760;2024-01-30T04:24:31;12.4;;;19.5;;
70014;SDS011;57358;51.094;6.760;2024-01-30T04:29:31;13.2;;;22.1;;
70014;SDS011;57358;51.094;6.760;2024-01-30T04:34:30;12.9;;;22.9;;
70014;SDS011;57358;51.094;6.760;2024-01-30T04:39:29;13.7;;;19.8;;
70014;SDS011;57358;51.094;6.760;2024-01-30T04:44:29;12.7;;;19.7;;
70014;SDS011;57358;51.094;6.760;2024-01-30T04:49:28;13.4;;;21.8;;
70014;SDS011;57358;51.094;6.760;2024-01-30T04:54:27;12.2;;;21.1;;
70014;SDS011;57358;51.094;6.760;2024-01-30T04:59:27;13.3;;;24.5;;
70014;SDS011;57358;51.094;6.760;2024-01-30T05:04:26;12.3;;;19.9;;
70014;SDS011;57358;51.094;6.760;2024-01-30T05:09:25;12.9;;;21.9;;
70014;SDS011;57358;51.094;6.760;2024-01-30T05:14:25;13.5;;;21.1;;
70014;SDS011;57358;51.094;6.760;2024-01-30T05:19:24;13.8;;;25.2;;
70014;SDS011;57358;51.094;6.760;2024-01-30T05:24:23;12.8;;;19.9;;
70014;SDS011;57358;51.094;6.760;2024-01-30T05:29:23;13.2;;;21.2;;
70014;SDS011;57358;51.094;6.760;2024-01-30T05:34:22;13.5;;;22.3;;
70014;SDS011;57358;51.094;6.760;2024-01-30T05:39:21;13.4;;;20.5;;
70014;SDS011;57358;51.094;6.760;2024-01-30T05:44:21;13.6;;;23.6;;
70014;SDS011;57358;51.094;6.760;2024-01-30T05:49:20;13.9;;;20.3;;
70014;SDS011;57358;51.094;6.760;2024-01-30T05:54:19;13.3;;;24.7;;
70014;SDS011;57358;51.094;6.760;2024-01-30T05:59:19;12.6;;;21.1;;
70014;SDS011;57358;51.094;6.760;2024-01-30T06:04:18;12.7;;;22.9;;
70014;SDS011;57358;51.094;6.760;2024-01-30T06:09:17;13.1;;;23.5;;
70014;SDS011;57358;51.094;6.760;2024-01-30T06:14:16;13.6;;;20.9;;
70014;SDS011;57358;51.094;6.760;2024-01-30T06:19:16;12.8;;;21.7;;
70014;SDS011;57358;51.094;6.760;2024-01-30T06:24:15;12.1;;;19.8;;
70014;SDS011;57358;51.094;6.760;2024-01-30T06:29:14;12.7;;;18.5;;
70014;SDS011;57358;51.094;6.760;2024-01-30T06:34:14;12.7;;;21.8;;
70014;SDS011;57358;51.094;6.760;2024-01-30T06:39:13;12.8;;;18.5;;
70014;SDS011;57358;51.094;6.760;2024-01-30T06:44:12;12.4;;;21.5;;
70014;SDS011;57358;51.094;6.760;2024-01-30T06:49:12;12.6;;;20.5;;
70014;SDS011;57358;51.094;6.760;2024-01-30T06:54:11;11.4;;;19.2;;
70014;SDS011;57358;51.094;6.760;2024-01-30T06:59:10;11.8;;;23.1;;
70014;SDS011;57358;51.094;6.760;2024-01-30T07:04:10;13.2;;;20.8;;
70014;SDS011;57358;51.094;6.760;2024-01-30T07:09:09;12.3;;;22.9;;
70014;SDS011;57358;51.094;6.760;2024-01-30T07:14:08;12.1;;;19.1;;
70014;SDS011;57358;51.094;6.760;2024-01-30T07:19:08;12.1;;;21.8;;
70014;SDS011;57358;51.094;6.760;2024-01-30T07:24:07;11.8;;;22.3;;
70014;SDS011;57358;51.094;6.760;2024-01-30T07:29:06;11.8;;;19.2;;
70014;SDS011;57358;51.094;6.760;2024-01-30T07:34:05;12;;;21;;
70014;SDS011;57358;51.094;6.760;2024-01-30T07:39:05;11.6;;;20.6;;
70014;SDS011;57358;51.094;6.760;2024-01-30T07:44:04;11.8;;;20.1;;
70014;SDS011;57358;51.094;6.760;2024-01-30T07:49:03;12;;;21.9;;
70014;SDS011;57358;51.094;6.760;2024-01-30T07:54:03;11.9;;;19.9;;
70014;SDS011;57358;51.094;6.760;2024-01-30T07:59:02;12.2;;;25.7;;
70014;SDS011;57358;51.094;6.760;2024-01-30T08:04:01;12.2;;;16.5;;
70014;SDS011;57358;51.094;6.760;2024-01-30T08:09:01;12.7;;;21.8;;
70014;SDS011;57358;51.094;6.760;2024-01-30T08:14:00;13;;;21.2;;
70014;SDS011;57358;51.094;6.760;2024-01-30T08:18:59;13.3;;;19.8;;
70014;SDS011;57358;51.094;6.760;2024-01-30T08:23:58;14.3;;;24.5;;
70014;SDS011;57358;51.094;6.760;2024-01-30T08:28:58;12.8;;;19;;
70014;SDS011;57358;51.094;6.760;2024-01-30T08:33:57;13.5;;;21.7;;
70014;SDS011;57358;51.094;6.760;2024-01-30T08:38:56;12.8;;;18.6;;
70014;SDS011;57358;51.094;6.760;2024-01-30T08:43:56;12.2;;;20.1;;
70014;SDS011;57358;51.094;6.760;2024-01-30T08:48:55;13.1;;;23.2;;
70014;SDS011;57358;51.094;6.760;2024-01-30T08:53:54;12.2;;;17.7;;
70014;SDS011;57358;51.094;6.760;2024-01-30T08:58:54;12.4;;;18;;
70014;SDS011;57358;51.094;6.760;2024-01-30T09:03:53;12.2;;;20.7;;
70014;SDS011;57358;51.094;6.760;2024-01-30T09:08:52;11.7;;;18.9;;
70014;SDS011;57358;51.094;6.760;2024-01-30T09:13:52;11.5;;;16.6;;
70014;SDS011;57358;51.094;6.760;2024-01-30T09:18:51;12.6;;;21.8;;
70014;SDS011;57358;51.094;6.760;2024-01-30T09:23:51;12.6;;;23.2;;
70014;SDS011;57358;51.094;6.760;2024-01-30T09:28:50;12.3;;;20.8;;
70014;SDS011;57358;51.094;6.760;2024-01-30T09:33:49;14.2;;;23.1;;
70014;SDS011;57358;51.094;6.760;2024-01-30T09:38:48;12.8;;;20.8;;
70014;SDS011;57358;51.094;6.760;2024-01-30T09:43:48;12.6;;;18.6;;
70014;SDS011;57358;51.094;6.760;2024-01-30T09:48:47;12.6;;;19.7;;
70014;SDS011;57358;51.094;6.760;2024-01-30T09:53:47;13.7;;;23.1;;
70014;SDS011;57358;51.094;6.760;2024-01-30T09:58:46;13.1;;;20.9;;
70014;SDS011;57358;51.094;6.760;2024-01-30T10:03:45;13.3;;;22.4;;
70014;SDS011;57358;51.094;6.760;2024-01-30T10:08:45;11.7;;;17.9;;
70014;SDS011;57358;51.094;6.760;2024-01-30T10:13:44;12.7;;;21.3;;
70014;SDS011;57358;51.094;6.760;2024-01-30T10:18:44;12.1;;;17.2;;
70014;SDS011;57358;51.094;6.760;2024-01-30T10:23:43;12.6;;;22.3;;
70014;SDS011;57358;51.094;6.760;2024-01-30T10:28:42;11.8;;;19.5;;
70014;SDS011;57358;51.094;6.760;2024-01-30T10:33:42;12.9;;;21.7;;
70014;SDS011;57358;51.094;6.760;2024-01-30T10:38:42;11.8;;;19;;
70014;SDS011;57358;51.094;6.760;2024-01-30T10:43:41;12.8;;;19.1;;
70014;SDS011;57358;51.094;6.760;2024-01-30T10:48:41;12;;;20.1;;
70014;SDS011;57358;51.094;6.760;2024-01-30T10:53:40;13;;;18.1;;
70014;SDS011;57358;51.094;6.760;2024-01-30T10:58:39;12.7;;;22;;
70014;SDS011;57358;51.094;6.760;2024-01-30T11:03:38;12.8;;;17.5;;
70014;SDS011;57358;51.094;6.760;2024-01-30T11:08:38;12.5;;;24.7;;
70014;SDS011;57358;51.094;6.760;2024-01-30T11:13:37;12.3;;;17.9;;
70014;SDS011;57358;51.094;6.760;2024-01-30T11:18:37;12;;;19.9;;
70014;SDS011;57358;51.094;6.760;2024-01-30T11:23:36;13.1;;;18;;
70014;SDS011;57358;51.094;6.760;2024-01-30T11:28:36;11.6;;;13.6;;
70014;SDS011;57358;51.094;6.760;2024-01-30T11:33:35;12.4;;;21.9;;
70014;SDS011;57358;51.094;6.760;2024-01-30T11:38:35;12.2;;;19.5;;
70014;SDS011;57358;51.094;6.760;2024-01-30T11:43:34;11.6;;;17.7;;
70014;SDS011;57358;51.094;6.760;2024-01-30T11:48:34;11.7;;;17.8;;
70014;SDS011;57358;51.094;6.760;2024-01-30T11:53:33;13.9;;;18.5;;
70014;SDS011;57358;51.094;6.760;2024-01-30T11:58:33;12.5;;;17.6;;
70014;SDS011;57358;51.094;6.760;2024-01-30T12:03:32;13.5;;;25.2;;
70014;SDS011;57358;51.094;6.760;2024-01-30T12:08:32;10.2;;;19;;
70014;SDS011;57358;51.094;6.760;2024-01-30T12:13:31;10.7;;;20.3;;
70014;SDS011;57358;51.094;6.760;2024-01-30T12:18:31;10;;;18.9;;
70014;SDS011;57358;51.094;6.760;2024-01-30T12:23:30;9.8;;;19.1;;
70014;SDS011;57358;51.094;6.760;2024-01-30T12:28:30;9.1;;;13.5;;
70014;SDS011;57358;51.094;6.760;2024-01-30T12:33:29;9.4;;;18.4;;
70014;SDS011;57358;51.094;6.760;2024-01-30T12:38:29;9.3;;;11.8;;
70014;SDS011;57358;51.094;6.760;2024-01-30T12:43:29;9.6;;;17.6;;
70014;SDS011;57358;51.094;6.760;2024-01-30T12:48:28;9.4;;;18.3;;
70014;SDS011;57358;51.094;6.760;2024-01-30T12:53:27;10.6;;;18.7;;
70014;SDS011;57358;51.094;6.760;2024-01-30T12:58:27;10.2;;;19;;
70014;SDS011;57358;51.094;6.760;2024-01-30T13:03:26;10.1;;;16.8;;
70014;SDS011;57358;51.094;6.760;2024-01-30T13:08:26;9.9;;;17.1;;
70014;SDS011;57358;51.094;6.760;2024-01-30T13:13:25;10.3;;;16;;
70014;SDS011;57358;51.094;6.760;2024-01-30T13:18:25;9.9;;;17.8;;
70014;SDS011;57358;51.094;6.760;2024-01-30T13:23:24;10.7;;;14.9;;
70014;SDS011;57358;51.094;6.760;2024-01-30T13:28:23;10.3;;;15.8;;
70014;SDS011;57358;51.094;6.760;2024-01-30T13:33:23;10.4;;;17.2;;
70014;SDS011;57358;51.094;6.760;2024-01-30T13:38:22;10.5;;;16;;
70014;SDS011;57358;51.094;6.760;2024-01-30T13:43:22;10.4;;;16.5;;
70014;SDS011;57358;51.094;6.760;2024-01-30T13:48:21;10.9;;;16.1;;
70014;SDS011;57358;51.094;6.760;2024-01-30T13:53:21;10.6;;;17.2;;
70014;SDS011;57358;51.094;6.760;2024-01-30T13:58:20;10.8;;;20.2;;
70014;SDS011;57358;51.094;6.760;2024-01-30T14:03:20;10.4;;;16.7;;
70014;SDS011;57358;51.094;6.760;2024-01-30T14:08:19;10.8;;;16.7;;
70014;SDS011;57358;51.094;6.760;2024-01-30T14:13:18;10.5;;;15.6;;
70014;SDS011;57358;51.094;6.760;2024-01-30T14:18:18;10.1;;;20.8;;
70014;SDS011;57358;51.094;6.760;2024-01-30T14:23:18;10;;;16.2;;
70014;SDS011;57358;51.094;6.760;2024-01-30T14:28:17;10.1;;;17.9;;
70014;SDS011;57358;51.094;6.760;2024-01-30T14:33:16;10.7;;;19.7;;
70014;SDS011;57358;51.094;6.760;2024-01-30T14:38:16;10.2;;;13.6;;
70014;SDS011;57358;51.094;6.760;2024-01-30T14:43:15;10.7;;;16.1;;
70014;SDS011;57358;51.094;6.760;2024-01-30T14:48:15;10.8;;;18.4;;
70014;SDS011;57358;51.094;6.760;2024-01-30T14:53:14;11.6;;;23.6;;
70014;SDS011;57358;51.094;6.760;2024-01-30T14:58:14;10.9;;;19.5;;
70014;SDS011;57358;51.094;6.760;2024-01-30T15:03:13;10.8;;;21.6;;
70014;SDS011;57358;51.094;6.760;2024-01-30T15:08:13;10.7;;;16.3;;
70014;SDS011;57358;51.094;6.760;2024-01-30T15:13:12;10.8;;;16.5;;
70014;SDS011;57358;51.094;6.760;2024-01-30T15:18:12;10.5;;;19.1;;
70014;SDS011;57358;51.094;6.760;2024-01-30T15:23:11;10.2;;;16.9;;
70014;SDS011;57358;51.094;6.760;2024-01-30T15:28:11;11.3;;;19.2;;
70014;SDS011;57358;51.094;6.760;2024-01-30T15:33:10;9;;;12.6;;
70014;SDS011;57358;51.094;6.760;2024-01-30T15:38:09;7.6;;;11.1;;
70014;SDS011;57358;51.094;6.760;2024-01-30T15:43:09;7.9;;;12.9;;
70014;SDS011;57358;51.094;6.760;2024-01-30T15:48:08;6.5;;;9.2;;
70014;SDS011;57358;51.094;6.760;2024-01-30T15:53:08;7.4;;;10.4;;
70014;SDS011;57358;51.094;6.760;2024-01-30T15:58:07;6.1;;;7.2;;
70014;SDS011;57358;51.094;6.760;2024-01-30T16:03:07;6.5;;;10;;
70014;SDS011;57358;51.094;6.760;2024-01-30T16:08:06;5.7;;;6.2;;
70014;SDS011;57358;51.094;6.760;2024-01-30T16:13:05;5.8;;;7.1;;
70014;SDS011;57358;51.094;6.760;2024-01-30T16:18:05;6;;;7.8;;
70014;SDS011;57358;51.094;6.760;2024-01-30T16:23:04;5.7;;;6.4;;
70014;SDS011;57358;51.094;6.760;2024-01-30T16:28:04;5.7;;;7.5;;
70014;SDS011;57358;51.094;6.760;2024-01-30T16:33:03;5.5;;;7.2;;
70014;SDS011;57358;51.094;6.760;2024-01-30T16:38:03;5.1;;;6.3;;
70014;SDS011;57358;51.094;6.760;2024-01-30T16:43:02;4.8;;;7.1;;
70014;SDS011;57358;51.094;6.760;2024-01-30T16:48:01;4.8;;;5.3;;
70014;SDS011;57358;51.094;6.760;2024-01-30T16:53:01;4.7;;;7;;
70014;SDS011;57358;51.094;6.760;2024-01-30T16:58:00;4.5;;;5.5;;
70014;SDS011;57358;51.094;6.760;2024-01-30T17:03:00;4.6;;;5.4;;
70014;SDS011;57358;51.094;6.760;2024-01-30T17:07:59;4.6;;;7;;
70014;SDS011;57358;51.094;6.760;2024-01-30T17:12:58;4.5;;;5;;
70014;SDS011;57358;51.094;6.760;2024-01-30T17:17:58;4.5;;;5.1;;
70014;SDS011;57358;51.094;6.760;2024-01-30T17:22:57;4.4;;;5.2;;
70014;SDS011;57358;51.094;6.760;2024-01-30T17:27:57;4.5;;;5.8;;
70014;SDS011;57358;51.094;6.760;2024-01-30T17:32:56;4.3;;;4.9;;
70014;SDS011;57358;51.094;6.760;2024-01-30T17:37:55;4.8;;;8.2;;
70014;SDS011;57358;51.094;6.760;2024-01-30T17:42:55;5;;;7.2;;
70014;SDS011;57358;51.094;6.760;2024-01-30T17:47:54;4.4;;;7.6;;
70014;SDS011;57358;51.094;6.760;2024-01-30T17:52:54;5.1;;;10.1;;
70014;SDS011;57358;51.094;6.760;2024-01-30T17:57:53;4.8;;;7.6;;
70014;SDS011;57358;51.094;6.760;2024-01-30T18:02:52;7.8;;;15;;
70014;SDS011;57358;51.094;6.760;2024-01-30T18:07:52;8.6;;;12.7;;
70014;SDS011;57358;51.094;6.760;2024-01-30T18:12:51;4.7;;;8.8;;
70014;SDS011;57358;51.094;6.760;2024-01-30T18:17:50;4.7;;;5.3;;
70014;SDS011;57358;51.094;6.760;2024-01-30T18:22:50;5.1;;;6.2;;
70014;SDS011;57358;51.094;6.760;2024-01-30T18:27:49;5.2;;;5.7;;
70014;SDS011;57358;51.094;6.760;2024-01-30T18:32:49;7.6;;;9;;
70014;SDS011;57358;51.094;6.760;2024-01-30T18:37:48;5.4;;;9.4;;
70014;SDS011;57358;51.094;6.760;2024-01-30T18:42:47;5.5;;;9.1;;
70014;SDS011;57358;51.094;6.760;2024-01-30T18:47:47;5.4;;;8.3;;
70014;SDS011;57358;51.094;6.760;2024-01-30T18:52:46;5.7;;;9.1;;
70014;SDS011;57358;51.094;6.760;2024-01-30T18:57:46;6.5;;;8.8;;
70014;SDS011;57358;51.094;6.760;2024-01-30T19:02:45;6.1;;;10.5;;
70014;SDS011;57358;51.094;6.760;2024-01-30T19:07:44;6.5;;;11.8;;
70014;SDS011;57358;51.094;6.760;2024-01-30T19:13:31;5.4;;;6;;
70014;SDS011;57358;51.094;6.760;2024-01-30T19:17:43;5.5;;;8.7;;
70014;SDS011;57358;51.094;6.760;2024-01-30T19:22:43;5.4;;;7.2;;
70014;SDS011;57358;51.094;6.760;2024-01-30T19:27:42;5.9;;;9;;
70014;SDS011;57358;51.094;6.760;2024-01-30T19:32:41;6.1;;;8.4;;
70014;SDS011;57358;51.094;6.760;2024-01-30T19:37:41;5.6;;;11.2;;
70014;SDS011;57358;51.094;6.760;2024-01-30T19:42:40;5.5;;;8.9;;
70014;SDS011;57358;51.094;6.760;2024-01-30T19:47:39;5.7;;;7.4;;
70014;SDS011;57358;51.094;6.760;2024-01-30T19:52:39;5.5;;;7.2;;
70014;SDS011;57358;51.094;6.760;2024-01-30T19:57:38;5.4;;;8.6;;
70014;SDS011;57358;51.094;6.760;2024-01-30T20:02:37;6.2;;;8.6;;
70014;SDS011;57358;51.094;6.760;2024-01-30T20:07:37;6.1;;;7.4;;
70014;SDS011;57358;51.094;6.760;2024-01-30T20:12:36;5.8;;;8.3;;
70014;SDS011;57358;51.094;6.760;2024-01-30T20:17:36;6;;;7.1;;
70014;SDS011;57358;51.094;6.760;2024-01-30T20:22:35;5.5;;;7.6;;
70014;SDS011;57358;51.094;6.760;2024-01-30T20:27:34;6;;;6.7;;
70014;SDS011;57358;51.094;6.760;2024-01-30T20:32:34;6;;;8;;
70014;SDS011;57358;51.094;6.760;2024-01-30T20:37:33;5.6;;;6.2;;
70014;SDS011;57358;51.094;6.760;2024-01-30T20:42:32;5.4;;;6.3;;
70014;SDS011;57358;51.094;6.760;2024-01-30T20:47:31;6;;;7.5;;
70014;SDS011;57358;51.094;6.760;2024-01-30T20:52:31;6.1;;;6.8;;
70014;SDS011;57358;51.094;6.760;2024-01-30T20:57:30;6;;;7.6;;
70014;SDS011;57358;51.094;6.760;2024-01-30T21:02:29;5.6;;;6.2;;
70014;SDS011;57358;51.094;6.760;2024-01-30T21:07:29;6.3;;;7.4;;
70014;SDS011;57358;51.094;6.760;2024-01-30T21:12:28;5.6;;;6.9;;
70014;SDS011;57358;51.094;6.760;2024-01-30T21:17:27;6.3;;;7.5;;
70014;SDS011;57358;51.094;6.760;2024-01-30T21:22:27;5.7;;;8.5;;
70014;SDS011;57358;51.094;6.760;2024-01-30T21:27:26;6.4;;;7.2;;
70014;SDS011;57358;51.094;6.760;2024-01-30T21:32:25;6.5;;;7.9;;
70014;SDS011;57358;51.094;6.760;2024-01-30T21:37:25;6.5;;;11.8;;
70014;SDS011;57358;51.094;6.760;2024-01-30T21:42:24;6.7;;;9.6;;
70014;SDS011;57358;51.094;6.760;2024-01-30T21:47:24;7.2;;;18.4;;
70014;SDS011;57358;51.094;6.760;2024-01-30T21:52:23;7.2;;;10.8;;
70014;SDS011;57358;51.094;6.760;2024-01-30T21:57:23;7.4;;;10.4;;
70014;SDS011;57358;51.094;6.760;2024-01-30T22:02:21;7.3;;;13.1;;
70014;SDS011;57358;51.094;6.760;2024-01-30T22:07:21;8;;;14.1;;
70014;SDS011;57358;51.094;6.760;2024-01-30T22:12:20;7.3;;;11.7;;
70014;SDS011;57358;51.094;6.760;2024-01-30T22:17:19;8.4;;;12.1;;
70014;SDS011;57358;51.094;6.760;2024-01-30T22:22:19;8.2;;;14.3;;
70014;SDS011;57358;51.094;6.760;2024-01-30T22:27:18;8.4;;;13.3;;
70014;SDS011;57358;51.094;6.760;2024-01-30T22:32:18;8.6;;;12.5;;
70014;SDS011;57358;51.094;6.760;2024-01-30T22:37:17;9;;;13.7;;
70014;SDS011;57358;51.094;6.760;2024-01-30T22:42:16;9;;;15.5;;
70014;SDS011;57358;51.094;6.760;2024-01-30T22:47:16;9.6;;;14.7;;
70014;SDS011;57358;51.094;6.760;2024-01-30T22:52:15;8.4;;;12.9;;
70014;SDS011;57358;51.094;6.760;2024-01-30T22:57:14;9;;;14.3;;
70014;SDS011;57358;51.094;6.760;2024-01-30T23:02:13;8.5;;;14.1;;
70014;SDS011;57358;51.094;6.760;2024-01-30T23:07:13;9.4;;;17.1;;
70014;SDS011;57358;51.094;6.760;2024-01-30T23:12:12;8.8;;;15.1;;
70014;SDS011;57358;51.094;6.760;2024-01-30T23:17:12;10.1;;;14.5;;
70014;SDS011;57358;51.094;6.760;2024-01-30T23:22:11;9.5;;;14;;
70014;SDS011;57358;51.094;6.760;2024-01-30T23:27:10;9.6;;;15.4;;
70014;SDS011;57358;51.094;6.760;2024-01-30T23:32:09;9.8;;;16.4;;
70014;SDS011;57358;51.094;6.760;2024-01-30T23:37:09;10.6;;;17.8;;
70014;SDS011;57358;51.094;6.760;2024-01-30T23:42:08;9.6;;;18.3;;
70014;SDS011;57358;51.094;6.760;2024-01-30T23:47:07;10.9;;;16.9;;
70014;SDS011;57358;51.094;6.760;2024-01-30T23:52:07;11.5;;;22.1;;
70014;SDS011;57358;51.094;6.760;2024-01-30T23:57:06;12.5;;;21;;
